To NAV CANADA Home Page Login to a new session Search on AWWS site Feedback and Comments Disclaimer Vers la page française équivalente Tips FAQ What's new on the site To the Forecasts and Observations / NOTAM section To "File a Flight Plan" website Publications and other links Update of the User's profile FIC Telephone Numbers My Weather Data Folder Route Weather Data Regional Weather Data Local Weather Data To the Forecasts and Observations / NOTAM section
Request Generated 06/26/2017 at 03:45:35 UTC . Weather information available at that time is displayed.

METAR/TAF

FREDERICTON INTL/NB    (show WxCam)

SPECI CYFC 260323Z AUTO 27005KT 9SM FEW060 BKN093 OVC110 16/14 A2981
RMK LTNG DIST SE PRESFR SLP097 DENSITY ALT 200FT=
METAR CYFC 260300Z AUTO 26009G22KT 9SM RA BKN065 OVC087 16/13 A2984
RMK SLP107 DENSITY ALT 200FT=
SPECI CYFC 260227Z AUTO 22024G30KT 9SM -RA BKN095 BKN110 OVC140 18/14
A2982 RMK LTNG DIST S SLP098 DENSITY ALT 500FT=
SPECI CYFC 260221Z AUTO 21012KT 9SM -RA BKN095 OVC130 18/14 A2981 RMK
LTNG DIST S SLP097 DENSITY ALT 500FT=
METAR CYFC 260200Z AUTO 18009KT 9SM BKN120 OVC160 18/13 A2980 RMK
LTNG DIST S SLP092 DENSITY ALT 500FT=
METAR CYFC 260100Z AUTO 21004KT 9SM CLR 18/13 A2979 RMK SLP089
DENSITY ALT 500FT=

TAF AMD CYFC 260147Z 2601/2612 21004KT P6SM FEW060 TEMPO 2602/2603
2SM TSRA BR BKN015 OVC060CB
FM260300 VRB03KT P6SM SCT015 BKN030 TEMPO 2603/2608 BKN015 OVC030
FM261000 26007KT P6SM FEW015
RMK FCST BASED ON AUTO OBS. NXT FCST BY 260600Z=
Your time UTC time
Weather data provided by Environment Canada and NAV CANADA